sensor_id;sensor_type;location;lat;lon;timestamp;P1;durP1;ratioP1;P2;durP2;ratioP2
36191;SDS011;22233;42.708;23.360;2023-02-28T00:00:21;16.98;;;10.43;;
36191;SDS011;22233;42.708;23.360;2023-02-28T00:02:47;17.00;;;10.10;;
36191;SDS011;22233;42.708;23.360;2023-02-28T00:05:14;17.23;;;10.18;;
36191;SDS011;22233;42.708;23.360;2023-02-28T00:07:42;15.05;;;9.85;;
36191;SDS011;22233;42.708;23.360;2023-02-28T00:10:08;14.52;;;9.93;;
36191;SDS011;22233;42.708;23.360;2023-02-28T00:12:36;16.70;;;10.30;;
36191;SDS011;22233;42.708;23.360;2023-02-28T00:15:02;16.15;;;10.63;;
36191;SDS011;22233;42.708;23.360;2023-02-28T00:17:31;17.50;;;10.63;;
36191;SDS011;22233;42.708;23.360;2023-02-28T00:19:56;16.88;;;10.25;;
36191;SDS011;22233;42.708;23.360;2023-02-28T00:22:26;14.23;;;10.68;;
36191;SDS011;22233;42.708;23.360;2023-02-28T00:24:52;18.30;;;11.80;;
36191;SDS011;22233;42.708;23.360;2023-02-28T00:27:18;18.88;;;11.70;;
36191;SDS011;22233;42.708;23.360;2023-02-28T00:29:43;18.25;;;9.68;;
36191;SDS011;22233;42.708;23.360;2023-02-28T00:32:08;17.83;;;10.40;;
36191;SDS011;22233;42.708;23.360;2023-02-28T00:34:34;19.33;;;12.07;;
36191;SDS011;22233;42.708;23.360;2023-02-28T00:37:03;19.98;;;11.02;;
36191;SDS011;22233;42.708;23.360;2023-02-28T00:39:33;14.13;;;9.90;;
36191;SDS011;22233;42.708;23.360;2023-02-28T00:42:00;16.25;;;9.65;;
36191;SDS011;22233;42.708;23.360;2023-02-28T00:44:27;15.38;;;9.07;;
36191;SDS011;22233;42.708;23.360;2023-02-28T00:46:52;16.55;;;9.88;;
36191;SDS011;22233;42.708;23.360;2023-02-28T00:49:19;17.52;;;9.65;;
36191;SDS011;22233;42.708;23.360;2023-02-28T00:51:45;17.35;;;10.55;;
36191;SDS011;22233;42.708;23.360;2023-02-28T00:54:11;15.38;;;9.00;;
36191;SDS011;22233;42.708;23.360;2023-02-28T00:56:36;14.10;;;9.15;;
36191;SDS011;22233;42.708;23.360;2023-02-28T00:59:02;14.05;;;8.85;;
36191;SDS011;22233;42.708;23.360;2023-02-28T01:01:27;14.20;;;8.85;;
36191;SDS011;22233;42.708;23.360;2023-02-28T01:03:53;15.95;;;9.57;;
36191;SDS011;22233;42.708;23.360;2023-02-28T01:06:18;16.42;;;9.45;;
36191;SDS011;22233;42.708;23.360;2023-02-28T01:08:44;14.98;;;8.93;;
36191;SDS011;22233;42.708;23.360;2023-02-28T01:11:10;16.67;;;9.73;;
36191;SDS011;22233;42.708;23.360;2023-02-28T01:13:36;13.82;;;9.70;;
36191;SDS011;22233;42.708;23.360;2023-02-28T01:16:02;13.15;;;9.10;;
36191;SDS011;22233;42.708;23.360;2023-02-28T01:18:28;15.68;;;10.07;;
36191;SDS011;22233;42.708;23.360;2023-02-28T01:20:54;18.70;;;9.43;;
36191;SDS011;22233;42.708;23.360;2023-02-28T01:23:19;15.23;;;8.75;;
36191;SDS011;22233;42.708;23.360;2023-02-28T01:25:48;14.57;;;8.38;;
36191;SDS011;22233;42.708;23.360;2023-02-28T01:28:13;13.73;;;8.48;;
36191;SDS011;22233;42.708;23.360;2023-02-28T01:30:39;15.50;;;9.52;;
36191;SDS011;22233;42.708;23.360;2023-02-28T01:33:04;17.45;;;9.07;;
36191;SDS011;22233;42.708;23.360;2023-02-28T01:35:33;14.25;;;8.25;;
36191;SDS011;22233;42.708;23.360;2023-02-28T01:38:00;16.98;;;9.15;;
36191;SDS011;22233;42.708;23.360;2023-02-28T01:40:25;13.93;;;8.93;;
36191;SDS011;22233;42.708;23.360;2023-02-28T01:42:51;15.48;;;8.93;;
36191;SDS011;22233;42.708;23.360;2023-02-28T01:45:24;15.02;;;8.90;;
36191;SDS011;22233;42.708;23.360;2023-02-28T01:47:53;16.13;;;9.23;;
36191;SDS011;22233;42.708;23.360;2023-02-28T01:50:23;16.80;;;10.65;;
36191;SDS011;22233;42.708;23.360;2023-02-28T01:52:51;15.55;;;10.05;;
36191;SDS011;22233;42.708;23.360;2023-02-28T01:55:21;18.77;;;10.65;;
36191;SDS011;22233;42.708;23.360;2023-02-28T01:57:50;15.85;;;9.10;;
36191;SDS011;22233;42.708;23.360;2023-02-28T02:00:20;16.67;;;9.77;;
36191;SDS011;22233;42.708;23.360;2023-02-28T02:02:50;16.55;;;10.77;;
36191;SDS011;22233;42.708;23.360;2023-02-28T02:05:20;17.27;;;10.98;;
36191;SDS011;22233;42.708;23.360;2023-02-28T02:07:48;18.13;;;11.50;;
36191;SDS011;22233;42.708;23.360;2023-02-28T02:10:21;18.20;;;10.68;;
36191;SDS011;22233;42.708;23.360;2023-02-28T02:19:01;21.63;;;11.55;;
36191;SDS011;22233;42.708;23.360;2023-02-28T02:36:14;24.20;;;13.20;;
36191;SDS011;22233;42.708;23.360;2023-02-28T02:43:44;19.92;;;11.63;;
36191;SDS011;22233;42.708;23.360;2023-02-28T02:46:20;18.52;;;10.35;;
36191;SDS011;22233;42.708;23.360;2023-02-28T02:48:46;17.98;;;11.35;;
36191;SDS011;22233;42.708;23.360;2023-02-28T02:51:16;19.60;;;11.68;;
36191;SDS011;22233;42.708;23.360;2023-02-28T02:53:55;19.77;;;11.98;;
36191;SDS011;22233;42.708;23.360;2023-02-28T02:56:26;17.25;;;11.02;;
36191;SDS011;22233;42.708;23.360;2023-02-28T02:58:55;16.95;;;10.13;;
36191;SDS011;22233;42.708;23.360;2023-02-28T03:01:25;16.98;;;10.00;;
36191;SDS011;22233;42.708;23.360;2023-02-28T03:03:58;19.95;;;11.00;;
36191;SDS011;22233;42.708;23.360;2023-02-28T03:06:26;21.92;;;11.05;;
36191;SDS011;22233;42.708;23.360;2023-02-28T03:08:52;19.60;;;10.57;;
36191;SDS011;22233;42.708;23.360;2023-02-28T03:11:18;21.00;;;11.82;;
36191;SDS011;22233;42.708;23.360;2023-02-28T03:22:16;21.13;;;11.65;;
36191;SDS011;22233;42.708;23.360;2023-02-28T03:25:20;26.70;;;12.50;;
36191;SDS011;22233;42.708;23.360;2023-02-28T03:33:35;22.02;;;12.20;;
36191;SDS011;22233;42.708;23.360;2023-02-28T03:36:06;21.23;;;11.75;;
36191;SDS011;22233;42.708;23.360;2023-02-28T03:41:06;21.38;;;11.48;;
36191;SDS011;22233;42.708;23.360;2023-02-28T03:43:58;18.45;;;10.98;;
36191;SDS011;22233;42.708;23.360;2023-02-28T03:46:30;21.45;;;11.40;;
36191;SDS011;22233;42.708;23.360;2023-02-28T03:49:43;24.15;;;12.02;;
36191;SDS011;22233;42.708;23.360;2023-02-28T03:51:58;26.20;;;12.43;;
36191;SDS011;22233;42.708;23.360;2023-02-28T03:54:31;25.52;;;12.57;;
36191;SDS011;22233;42.708;23.360;2023-02-28T03:57:08;26.88;;;12.75;;
36191;SDS011;22233;42.708;23.360;2023-02-28T03:59:42;25.58;;;13.23;;
36191;SDS011;22233;42.708;23.360;2023-02-28T04:02:12;22.95;;;13.07;;
36191;SDS011;22233;42.708;23.360;2023-02-28T04:04:37;23.17;;;11.95;;
36191;SDS011;22233;42.708;23.360;2023-02-28T04:07:04;20.50;;;11.18;;
36191;SDS011;22233;42.708;23.360;2023-02-28T04:09:32;19.58;;;10.77;;
36191;SDS011;22233;42.708;23.360;2023-02-28T04:11:57;18.52;;;10.77;;
36191;SDS011;22233;42.708;23.360;2023-02-28T04:14:23;19.20;;;11.27;;
36191;SDS011;22233;42.708;23.360;2023-02-28T04:16:48;18.40;;;10.15;;
36191;SDS011;22233;42.708;23.360;2023-02-28T04:19:16;18.65;;;10.48;;
36191;SDS011;22233;42.708;23.360;2023-02-28T04:21:42;22.58;;;11.43;;
36191;SDS011;22233;42.708;23.360;2023-02-28T04:24:10;19.02;;;11.02;;
36191;SDS011;22233;42.708;23.360;2023-02-28T04:26:42;19.27;;;10.50;;
36191;SDS011;22233;42.708;23.360;2023-02-28T04:29:08;21.40;;;11.32;;
36191;SDS011;22233;42.708;23.360;2023-02-28T04:31:35;24.55;;;12.20;;
36191;SDS011;22233;42.708;23.360;2023-02-28T04:34:00;22.42;;;11.80;;
36191;SDS011;22233;42.708;23.360;2023-02-28T04:36:26;24.23;;;11.88;;
36191;SDS011;22233;42.708;23.360;2023-02-28T04:38:51;25.63;;;12.88;;
36191;SDS011;22233;42.708;23.360;2023-02-28T04:41:17;23.80;;;12.23;;
36191;SDS011;22233;42.708;23.360;2023-02-28T04:43:43;27.23;;;13.70;;
36191;SDS011;22233;42.708;23.360;2023-02-28T04:46:09;27.10;;;13.30;;
36191;SDS011;22233;42.708;23.360;2023-02-28T04:48:36;24.98;;;12.40;;
36191;SDS011;22233;42.708;23.360;2023-02-28T04:51:07;29.88;;;14.95;;
36191;SDS011;22233;42.708;23.360;2023-02-28T04:53:35;27.65;;;12.82;;
36191;SDS011;22233;42.708;23.360;2023-02-28T04:56:02;29.02;;;13.27;;
36191;SDS011;22233;42.708;23.360;2023-02-28T04:58:28;30.48;;;13.63;;
36191;SDS011;22233;42.708;23.360;2023-02-28T05:00:56;30.52;;;13.98;;
36191;SDS011;22233;42.708;23.360;2023-02-28T05:03:27;26.38;;;13.63;;
36191;SDS011;22233;42.708;23.360;2023-02-28T05:05:53;31.88;;;14.02;;
36191;SDS011;22233;42.708;23.360;2023-02-28T05:08:18;31.80;;;13.95;;
36191;SDS011;22233;42.708;23.360;2023-02-28T05:10:43;34.80;;;14.20;;
36191;SDS011;22233;42.708;23.360;2023-02-28T05:13:11;28.95;;;14.40;;
36191;SDS011;22233;42.708;23.360;2023-02-28T05:15:37;38.33;;;16.30;;
36191;SDS011;22233;42.708;23.360;2023-02-28T05:18:02;32.00;;;14.25;;
36191;SDS011;22233;42.708;23.360;2023-02-28T05:20:28;30.35;;;15.23;;
36191;SDS011;22233;42.708;23.360;2023-02-28T05:22:53;35.35;;;15.50;;
36191;SDS011;22233;42.708;23.360;2023-02-28T05:25:20;33.72;;;17.65;;
36191;SDS011;22233;42.708;23.360;2023-02-28T05:27:47;36.97;;;15.20;;
36191;SDS011;22233;42.708;23.360;2023-02-28T05:30:12;38.85;;;16.17;;
36191;SDS011;22233;42.708;23.360;2023-02-28T05:32:39;36.42;;;15.27;;
36191;SDS011;22233;42.708;23.360;2023-02-28T05:35:09;33.45;;;14.70;;
36191;SDS011;22233;42.708;23.360;2023-02-28T05:37:38;37.92;;;15.82;;
36191;SDS011;22233;42.708;23.360;2023-02-28T05:40:04;35.30;;;16.30;;
36191;SDS011;22233;42.708;23.360;2023-02-28T05:42:32;34.95;;;16.27;;
36191;SDS011;22233;42.708;23.360;2023-02-28T05:44:57;36.13;;;16.95;;
36191;SDS011;22233;42.708;23.360;2023-02-28T05:47:24;37.78;;;17.80;;
36191;SDS011;22233;42.708;23.360;2023-02-28T05:49:49;38.97;;;16.48;;
36191;SDS011;22233;42.708;23.360;2023-02-28T05:52:15;34.42;;;16.98;;
36191;SDS011;22233;42.708;23.360;2023-02-28T05:54:40;39.13;;;16.90;;
36191;SDS011;22233;42.708;23.360;2023-02-28T05:57:06;34.55;;;16.35;;
36191;SDS011;22233;42.708;23.360;2023-02-28T05:59:32;32.33;;;15.88;;
36191;SDS011;22233;42.708;23.360;2023-02-28T06:01:58;37.83;;;16.45;;
36191;SDS011;22233;42.708;23.360;2023-02-28T06:04:23;38.42;;;17.42;;
36191;SDS011;22233;42.708;23.360;2023-02-28T06:06:49;37.63;;;16.38;;
36191;SDS011;22233;42.708;23.360;2023-02-28T06:09:15;36.50;;;18.90;;
36191;SDS011;22233;42.708;23.360;2023-02-28T06:11:40;36.40;;;16.60;;
36191;SDS011;22233;42.708;23.360;2023-02-28T06:14:07;34.00;;;16.63;;
36191;SDS011;22233;42.708;23.360;2023-02-28T06:16:33;29.88;;;15.80;;
36191;SDS011;22233;42.708;23.360;2023-02-28T06:19:00;35.17;;;16.25;;
36191;SDS011;22233;42.708;23.360;2023-02-28T06:21:27;33.03;;;16.00;;
36191;SDS011;22233;42.708;23.360;2023-02-28T06:23:53;32.20;;;15.40;;
36191;SDS011;22233;42.708;23.360;2023-02-28T06:26:19;32.60;;;16.52;;
36191;SDS011;22233;42.708;23.360;2023-02-28T06:28:45;30.80;;;14.65;;
36191;SDS011;22233;42.708;23.360;2023-02-28T06:31:12;32.42;;;16.05;;
36191;SDS011;22233;42.708;23.360;2023-02-28T06:33:39;33.40;;;16.25;;
36191;SDS011;22233;42.708;23.360;2023-02-28T06:36:06;31.60;;;15.48;;
36191;SDS011;22233;42.708;23.360;2023-02-28T06:38:33;27.42;;;14.15;;
36191;SDS011;22233;42.708;23.360;2023-02-28T06:40:59;30.30;;;15.02;;
36191;SDS011;22233;42.708;23.360;2023-02-28T06:43:27;28.13;;;14.95;;
36191;SDS011;22233;42.708;23.360;2023-02-28T06:45:55;24.30;;;14.55;;
36191;SDS011;22233;42.708;23.360;2023-02-28T06:48:22;29.58;;;14.65;;
36191;SDS011;22233;42.708;23.360;2023-02-28T06:50:47;24.23;;;13.77;;
36191;SDS011;22233;42.708;23.360;2023-02-28T06:53:13;24.20;;;14.25;;
36191;SDS011;22233;42.708;23.360;2023-02-28T06:55:39;25.02;;;14.00;;
36191;SDS011;22233;42.708;23.360;2023-02-28T06:58:05;22.65;;;13.48;;
36191;SDS011;22233;42.708;23.360;2023-02-28T07:00:40;21.00;;;12.27;;
36191;SDS011;22233;42.708;23.360;2023-02-28T07:03:06;25.57;;;14.43;;
36191;SDS011;22233;42.708;23.360;2023-02-28T07:05:31;22.75;;;13.38;;
36191;SDS011;22233;42.708;23.360;2023-02-28T07:07:59;24.88;;;13.48;;
36191;SDS011;22233;42.708;23.360;2023-02-28T07:10:24;25.20;;;15.15;;
36191;SDS011;22233;42.708;23.360;2023-02-28T07:12:50;24.05;;;14.25;;
36191;SDS011;22233;42.708;23.360;2023-02-28T07:15:16;22.65;;;13.55;;
36191;SDS011;22233;42.708;23.360;2023-02-28T07:17:41;21.63;;;13.18;;
36191;SDS011;22233;42.708;23.360;2023-02-28T07:20:07;21.00;;;13.25;;
36191;SDS011;22233;42.708;23.360;2023-02-28T07:22:33;19.10;;;13.10;;
36191;SDS011;22233;42.708;23.360;2023-02-28T07:24:58;23.00;;;13.45;;
36191;SDS011;22233;42.708;23.360;2023-02-28T07:27:24;18.45;;;13.07;;
36191;SDS011;22233;42.708;23.360;2023-02-28T07:29:50;22.55;;;12.95;;
36191;SDS011;22233;42.708;23.360;2023-02-28T07:32:16;20.80;;;14.95;;
36191;SDS011;22233;42.708;23.360;2023-02-28T07:34:43;22.02;;;13.85;;
36191;SDS011;22233;42.708;23.360;2023-02-28T07:37:08;18.83;;;12.52;;
36191;SDS011;22233;42.708;23.360;2023-02-28T07:39:34;16.38;;;11.73;;
36191;SDS011;22233;42.708;23.360;2023-02-28T07:41:59;21.35;;;13.00;;
36191;SDS011;22233;42.708;23.360;2023-02-28T07:44:25;19.55;;;13.00;;
36191;SDS011;22233;42.708;23.360;2023-02-28T07:46:51;20.92;;;12.35;;
36191;SDS011;22233;42.708;23.360;2023-02-28T07:49:17;22.42;;;14.27;;
36191;SDS011;22233;42.708;23.360;2023-02-28T07:51:43;24.25;;;12.75;;
36191;SDS011;22233;42.708;23.360;2023-02-28T07:54:08;22.35;;;13.77;;
36191;SDS011;22233;42.708;23.360;2023-02-28T07:56:33;23.88;;;14.93;;
36191;SDS011;22233;42.708;23.360;2023-02-28T07:58:59;20.08;;;13.95;;
36191;SDS011;22233;42.708;23.360;2023-02-28T08:01:24;25.67;;;14.57;;
36191;SDS011;22233;42.708;23.360;2023-02-28T08:03:50;23.30;;;14.18;;
36191;SDS011;22233;42.708;23.360;2023-02-28T08:06:20;19.92;;;13.80;;
36191;SDS011;22233;42.708;23.360;2023-02-28T08:08:47;19.50;;;13.82;;
36191;SDS011;22233;42.708;23.360;2023-02-28T08:11:13;19.13;;;13.63;;
36191;SDS011;22233;42.708;23.360;2023-02-28T08:13:40;25.00;;;14.50;;
36191;SDS011;22233;42.708;23.360;2023-02-28T08:16:07;23.52;;;14.15;;
36191;SDS011;22233;42.708;23.360;2023-02-28T08:18:33;22.33;;;14.50;;
36191;SDS011;22233;42.708;23.360;2023-02-28T08:20:58;24.90;;;14.05;;
36191;SDS011;22233;42.708;23.360;2023-02-28T08:23:24;24.65;;;14.43;;
36191;SDS011;22233;42.708;23.360;2023-02-28T08:25:53;21.60;;;14.43;;
36191;SDS011;22233;42.708;23.360;2023-02-28T08:28:19;25.45;;;13.60;;
36191;SDS011;22233;42.708;23.360;2023-02-28T08:30:45;24.98;;;14.25;;
36191;SDS011;22233;42.708;23.360;2023-02-28T08:33:10;22.33;;;14.02;;
36191;SDS011;22233;42.708;23.360;2023-02-28T08:35:36;22.20;;;15.02;;
36191;SDS011;22233;42.708;23.360;2023-02-28T08:38:02;23.92;;;13.52;;
36191;SDS011;22233;42.708;23.360;2023-02-28T08:40:27;21.63;;;14.63;;
36191;SDS011;22233;42.708;23.360;2023-02-28T08:42:52;21.55;;;14.48;;
36191;SDS011;22233;42.708;23.360;2023-02-28T08:45:18;20.63;;;13.70;;
36191;SDS011;22233;42.708;23.360;2023-02-28T08:47:43;29.52;;;15.05;;
36191;SDS011;22233;42.708;23.360;2023-02-28T08:50:09;29.80;;;14.05;;
36191;SDS011;22233;42.708;23.360;2023-02-28T08:52:34;21.58;;;12.85;;
36191;SDS011;22233;42.708;23.360;2023-02-28T08:55:00;24.85;;;12.82;;
36191;SDS011;22233;42.708;23.360;2023-02-28T08:57:25;21.25;;;11.70;;
36191;SDS011;22233;42.708;23.360;2023-02-28T08:59:51;20.65;;;12.48;;
36191;SDS011;22233;42.708;23.360;2023-02-28T09:02:17;19.45;;;11.30;;
36191;SDS011;22233;42.708;23.360;2023-02-28T09:04:43;19.17;;;10.95;;
36191;SDS011;22233;42.708;23.360;2023-02-28T09:07:10;19.13;;;11.43;;
36191;SDS011;22233;42.708;23.360;2023-02-28T09:09:36;22.25;;;11.02;;
36191;SDS011;22233;42.708;23.360;2023-02-28T09:12:01;20.40;;;11.40;;
36191;SDS011;22233;42.708;23.360;2023-02-28T09:14:27;18.80;;;10.57;;
36191;SDS011;22233;42.708;23.360;2023-02-28T09:16:53;18.95;;;11.45;;
36191;SDS011;22233;42.708;23.360;2023-02-28T09:19:18;17.42;;;10.77;;
36191;SDS011;22233;42.708;23.360;2023-02-28T09:21:44;22.30;;;10.73;;
36191;SDS011;22233;42.708;23.360;2023-02-28T09:24:09;18.25;;;10.32;;
36191;SDS011;22233;42.708;23.360;2023-02-28T09:26:37;22.85;;;11.05;;
36191;SDS011;22233;42.708;23.360;2023-02-28T09:29:02;24.55;;;10.55;;
36191;SDS011;22233;42.708;23.360;2023-02-28T09:31:28;22.23;;;10.10;;
36191;SDS011;22233;42.708;23.360;2023-02-28T09:33:55;18.05;;;11.02;;
36191;SDS011;22233;42.708;23.360;2023-02-28T09:36:22;18.48;;;10.63;;
36191;SDS011;22233;42.708;23.360;2023-02-28T09:38:49;18.92;;;10.40;;
36191;SDS011;22233;42.708;23.360;2023-02-28T09:41:20;23.25;;;11.07;;
36191;SDS011;22233;42.708;23.360;2023-02-28T09:43:51;20.30;;;10.73;;
36191;SDS011;22233;42.708;23.360;2023-02-28T09:46:25;17.80;;;10.60;;
36191;SDS011;22233;42.708;23.360;2023-02-28T09:48:56;16.08;;;9.73;;
36191;SDS011;22233;42.708;23.360;2023-02-28T09:54:30;16.83;;;10.65;;
36191;SDS011;22233;42.708;23.360;2023-02-28T09:56:57;14.88;;;8.98;;
36191;SDS011;22233;42.708;23.360;2023-02-28T10:05:17;15.60;;;9.43;;
36191;SDS011;22233;42.708;23.360;2023-02-28T10:16:11;15.52;;;8.23;;
36191;SDS011;22233;42.708;23.360;2023-02-28T10:18:58;17.27;;;8.35;;
36191;SDS011;22233;42.708;23.360;2023-02-28T10:21:39;17.15;;;8.63;;
36191;SDS011;22233;42.708;23.360;2023-02-28T10:27:17;14.38;;;8.40;;
36191;SDS011;22233;42.708;23.360;2023-02-28T10:29:44;15.63;;;8.57;;
36191;SDS011;22233;42.708;23.360;2023-02-28T10:32:33;16.88;;;9.32;;
36191;SDS011;22233;42.708;23.360;2023-02-28T10:35:15;14.57;;;8.73;;
36191;SDS011;22233;42.708;23.360;2023-02-28T10:37:44;12.55;;;8.65;;
36191;SDS011;22233;42.708;23.360;2023-02-28T10:42:54;12.45;;;8.25;;
36191;SDS011;22233;42.708;23.360;2023-02-28T10:45:20;14.63;;;8.82;;
36191;SDS011;22233;42.708;23.360;2023-02-28T10:47:56;12.63;;;8.52;;
36191;SDS011;22233;42.708;23.360;2023-02-28T10:50:28;17.52;;;9.02;;
36191;SDS011;22233;42.708;23.360;2023-02-28T10:53:14;14.57;;;8.68;;
36191;SDS011;22233;42.708;23.360;2023-02-28T10:58:47;18.40;;;10.27;;
36191;SDS011;22233;42.708;23.360;2023-02-28T11:01:17;15.15;;;8.93;;
36191;SDS011;22233;42.708;23.360;2023-02-28T11:03:45;21.05;;;9.65;;
36191;SDS011;22233;42.708;23.360;2023-02-28T11:06:21;16.23;;;9.57;;
36191;SDS011;22233;42.708;23.360;2023-02-28T11:08:55;15.73;;;8.80;;
36191;SDS011;22233;42.708;23.360;2023-02-28T11:11:25;17.85;;;9.85;;
36191;SDS011;22233;42.708;23.360;2023-02-28T11:13:54;21.80;;;9.82;;
36191;SDS011;22233;42.708;23.360;2023-02-28T11:16:31;14.77;;;8.73;;
36191;SDS011;22233;42.708;23.360;2023-02-28T11:19:02;16.13;;;8.85;;
36191;SDS011;22233;42.708;23.360;2023-02-28T11:21:33;16.40;;;8.52;;
36191;SDS011;22233;42.708;23.360;2023-02-28T11:26:54;15.07;;;8.60;;
36191;SDS011;22233;42.708;23.360;2023-02-28T11:29:21;16.63;;;9.13;;
36191;SDS011;22233;42.708;23.360;2023-02-28T11:34:46;12.73;;;8.35;;
36191;SDS011;22233;42.708;23.360;2023-02-28T11:37:25;16.38;;;8.88;;
36191;SDS011;22233;42.708;23.360;2023-02-28T11:39:53;16.13;;;9.30;;
36191;SDS011;22233;42.708;23.360;2023-02-28T11:42:26;16.95;;;8.50;;
36191;SDS011;22233;42.708;23.360;2023-02-28T11:45:07;16.75;;;9.43;;
36191;SDS011;22233;42.708;23.360;2023-02-28T11:55:46;14.52;;;8.43;;
36191;SDS011;22233;42.708;23.360;2023-02-28T12:06:47;14.07;;;7.60;;
36191;SDS011;22233;42.708;23.360;2023-02-28T12:17:37;14.00;;;7.40;;
36191;SDS011;22233;42.708;23.360;2023-02-28T12:28:35;14.43;;;7.97;;
36191;SDS011;22233;42.708;23.360;2023-02-28T12:31:20;12.82;;;7.60;;
36191;SDS011;22233;42.708;23.360;2023-02-28T12:33:52;10.23;;;5.60;;
36191;SDS011;22233;42.708;23.360;2023-02-28T12:36:21;15.18;;;6.63;;
36191;SDS011;22233;42.708;23.360;2023-02-28T12:38:51;12.68;;;6.75;;
36191;SDS011;22233;42.708;23.360;2023-02-28T12:46:59;18.75;;;8.05;;
36191;SDS011;22233;42.708;23.360;2023-02-28T12:49:46;18.33;;;7.65;;
36191;SDS011;22233;42.708;23.360;2023-02-28T12:52:17;16.17;;;7.30;;
36191;SDS011;22233;42.708;23.360;2023-02-28T12:54:52;15.77;;;7.60;;
36191;SDS011;22233;42.708;23.360;2023-02-28T12:57:26;18.63;;;9.20;;
36191;SDS011;22233;42.708;23.360;2023-02-28T13:11:28;18.02;;;8.57;;
36191;SDS011;22233;42.708;23.360;2023-02-28T13:14:00;13.48;;;8.77;;
36191;SDS011;22233;42.708;23.360;2023-02-28T13:16:42;14.23;;;8.35;;
36191;SDS011;22233;42.708;23.360;2023-02-28T13:19:25;11.48;;;7.47;;
36191;SDS011;22233;42.708;23.360;2023-02-28T13:21:54;15.60;;;7.18;;
36191;SDS011;22233;42.708;23.360;2023-02-28T13:29:35;14.93;;;8.27;;
36191;SDS011;22233;42.708;23.360;2023-02-28T13:39:48;13.98;;;8.00;;
36191;SDS011;22233;42.708;23.360;2023-02-28T13:47:34;18.58;;;8.13;;
36191;SDS011;22233;42.708;23.360;2023-02-28T13:53:01;12.82;;;7.85;;
36191;SDS011;22233;42.708;23.360;2023-02-28T14:03:55;17.65;;;7.35;;
36191;SDS011;22233;42.708;23.360;2023-02-28T14:06:31;14.70;;;7.65;;
36191;SDS011;22233;42.708;23.360;2023-02-28T14:11:26;22.30;;;8.50;;
36191;SDS011;22233;42.708;23.360;2023-02-28T14:14:56;13.52;;;8.07;;
36191;SDS011;22233;42.708;23.360;2023-02-28T14:16:59;16.50;;;8.15;;
36191;SDS011;22233;42.708;23.360;2023-02-28T14:19:27;14.52;;;7.43;;
36191;SDS011;22233;42.708;23.360;2023-02-28T14:32:27;14.35;;;8.40;;
36191;SDS011;22233;42.708;23.360;2023-02-28T14:35:12;19.75;;;8.95;;
36191;SDS011;22233;42.708;23.360;2023-02-28T14:37:47;14.98;;;8.93;;
36191;SDS011;22233;42.708;23.360;2023-02-28T14:40:19;17.58;;;8.95;;
36191;SDS011;22233;42.708;23.360;2023-02-28T14:42:57;14.38;;;7.72;;
36191;SDS011;22233;42.708;23.360;2023-02-28T14:45:24;16.15;;;8.38;;
36191;SDS011;22233;42.708;23.360;2023-02-28T14:47:54;15.18;;;7.47;;
36191;SDS011;22233;42.708;23.360;2023-02-28T14:50:20;13.88;;;6.80;;
36191;SDS011;22233;42.708;23.360;2023-02-28T14:52:54;14.35;;;7.40;;
36191;SDS011;22233;42.708;23.360;2023-02-28T14:55:24;17.88;;;8.13;;
36191;SDS011;22233;42.708;23.360;2023-02-28T14:58:00;16.63;;;8.45;;
36191;SDS011;22233;42.708;23.360;2023-02-28T15:00:35;13.82;;;7.28;;
36191;SDS011;22233;42.708;23.360;2023-02-28T15:05:55;14.23;;;7.68;;
36191;SDS011;22233;42.708;23.360;2023-02-28T15:08:22;13.00;;;7.40;;
36191;SDS011;22233;42.708;23.360;2023-02-28T15:10:55;10.18;;;7.25;;
36191;SDS011;22233;42.708;23.360;2023-02-28T15:13:48;15.52;;;8.32;;
36191;SDS011;22233;42.708;23.360;2023-02-28T15:16:26;11.77;;;7.47;;
36191;SDS011;22233;42.708;23.360;2023-02-28T15:18:56;18.35;;;8.25;;
36191;SDS011;22233;42.708;23.360;2023-02-28T15:21:25;13.20;;;7.82;;
36191;SDS011;22233;42.708;23.360;2023-02-28T15:23:56;13.43;;;7.97;;
36191;SDS011;22233;42.708;23.360;2023-02-28T15:26:27;13.63;;;8.27;;
36191;SDS011;22233;42.708;23.360;2023-02-28T15:28:59;15.85;;;8.10;;
36191;SDS011;22233;42.708;23.360;2023-02-28T15:31:32;14.68;;;7.03;;
36191;SDS011;22233;42.708;23.360;2023-02-28T15:34:04;11.23;;;7.50;;
36191;SDS011;22233;42.708;23.360;2023-02-28T15:36:32;10.32;;;7.45;;
36191;SDS011;22233;42.708;23.360;2023-02-28T15:39:01;12.50;;;7.00;;
36191;SDS011;22233;42.708;23.360;2023-02-28T15:41:28;10.38;;;8.02;;
36191;SDS011;22233;42.708;23.360;2023-02-28T15:44:14;11.13;;;7.03;;
36191;SDS011;22233;42.708;23.360;2023-02-28T15:46:45;11.05;;;7.05;;
36191;SDS011;22233;42.708;23.360;2023-02-28T15:49:45;10.57;;;6.97;;
36191;SDS011;22233;42.708;23.360;2023-02-28T15:52:18;10.95;;;7.78;;
36191;SDS011;22233;42.708;23.360;2023-02-28T15:54:46;13.95;;;7.53;;
36191;SDS011;22233;42.708;23.360;2023-02-28T15:57:20;13.73;;;8.18;;
36191;SDS011;22233;42.708;23.360;2023-02-28T15:59:58;10.60;;;6.38;;
36191;SDS011;22233;42.708;23.360;2023-02-28T16:02:38;12.93;;;7.70;;
36191;SDS011;22233;42.708;23.360;2023-02-28T16:07:35;9.68;;;6.10;;
36191;SDS011;22233;42.708;23.360;2023-02-28T16:10:04;12.73;;;6.85;;
36191;SDS011;22233;42.708;23.360;2023-02-28T16:14:59;7.68;;;5.22;;
36191;SDS011;22233;42.708;23.360;2023-02-28T16:17:34;9.23;;;4.95;;
36191;SDS011;22233;42.708;23.360;2023-02-28T16:20:13;10.38;;;5.35;;
36191;SDS011;22233;42.708;23.360;2023-02-28T16:22:41;10.23;;;6.18;;
36191;SDS011;22233;42.708;23.360;2023-02-28T16:25:08;11.48;;;6.00;;
36191;SDS011;22233;42.708;23.360;2023-02-28T16:27:36;12.50;;;6.72;;
36191;SDS011;22233;42.708;23.360;2023-02-28T16:30:04;10.05;;;6.18;;
36191;SDS011;22233;42.708;23.360;2023-02-28T16:32:31;14.10;;;7.65;;
36191;SDS011;22233;42.708;23.360;2023-02-28T16:34:59;13.98;;;6.95;;
36191;SDS011;22233;42.708;23.360;2023-02-28T16:37:26;11.48;;;6.95;;
36191;SDS011;22233;42.708;23.360;2023-02-28T16:39:52;11.07;;;6.50;;
36191;SDS011;22233;42.708;23.360;2023-02-28T16:42:21;11.63;;;6.93;;
36191;SDS011;22233;42.708;23.360;2023-02-28T16:44:50;10.23;;;6.22;;
36191;SDS011;22233;42.708;23.360;2023-02-28T16:47:16;9.02;;;5.82;;
36191;SDS011;22233;42.708;23.360;2023-02-28T16:49:42;9.30;;;6.13;;
36191;SDS011;22233;42.708;23.360;2023-02-28T16:52:08;10.40;;;5.82;;
36191;SDS011;22233;42.708;23.360;2023-02-28T16:54:35;11.23;;;5.15;;
36191;SDS011;22233;42.708;23.360;2023-02-28T16:57:00;11.60;;;5.30;;
36191;SDS011;22233;42.708;23.360;2023-02-28T16:59:26;8.05;;;4.47;;
36191;SDS011;22233;42.708;23.360;2023-02-28T17:01:54;6.63;;;4.32;;
36191;SDS011;22233;42.708;23.360;2023-02-28T17:04:21;7.55;;;5.13;;
36191;SDS011;22233;42.708;23.360;2023-02-28T17:06:47;6.75;;;4.03;;
36191;SDS011;22233;42.708;23.360;2023-02-28T17:09:16;6.25;;;4.13;;
36191;SDS011;22233;42.708;23.360;2023-02-28T17:11:44;6.63;;;3.72;;
36191;SDS011;22233;42.708;23.360;2023-02-28T17:14:10;8.27;;;4.07;;
36191;SDS011;22233;42.708;23.360;2023-02-28T17:16:36;6.40;;;4.07;;
36191;SDS011;22233;42.708;23.360;2023-02-28T17:19:05;7.63;;;3.92;;
36191;SDS011;22233;42.708;23.360;2023-02-28T17:21:32;8.02;;;4.40;;